createdAt,value
2022-12-29T00:02:42.837Z,5.10
2022-12-29T00:07:45.904Z,5.11
2022-12-29T00:13:07.570Z,5.12
2022-12-29T00:18:10.407Z,5.17
2022-12-29T00:23:32.101Z,5.18
2022-12-29T00:29:10.435Z,5.19
2022-12-29T00:34:46.334Z,5.20
2022-12-29T00:40:07.708Z,5.17
2022-12-29T00:45:10.590Z,5.17
2022-12-29T00:50:13.403Z,5.20
2022-12-29T00:55:16.406Z,5.21
2022-12-29T01:00:20.262Z,5.20
2022-12-29T01:05:22.985Z,5.20
2022-12-29T01:10:25.674Z,5.19
2022-12-29T01:15:28.457Z,5.18
2022-12-29T01:20:31.246Z,5.15
2022-12-29T01:25:34.018Z,5.10
2022-12-29T01:30:36.787Z,5.08
2022-12-29T01:35:39.544Z,5.07
2022-12-29T01:40:47.163Z,5.05
2022-12-29T01:45:53.045Z,4.99
2022-12-29T01:50:56.511Z,4.97
2022-12-29T01:56:04.631Z,4.96
2022-12-29T02:01:07.592Z,4.94
2022-12-29T02:06:20.985Z,4.94
2022-12-29T02:11:27.089Z,4.92
2022-12-29T02:16:30.149Z,4.89
2022-12-29T02:21:48.277Z,4.88
2022-12-29T02:27:20.716Z,4.87
2022-12-29T02:32:38.497Z,4.87
2022-12-29T02:37:48.597Z,4.88
2022-12-29T02:43:03.585Z,4.88
2022-12-29T02:48:30.699Z,4.88
2022-12-29T02:53:54.553Z,4.89
2022-12-29T02:58:57.394Z,4.89
2022-12-29T03:04:25.149Z,4.88
2022-12-29T03:09:35.966Z,4.87
2022-12-29T03:15:06.593Z,4.86
2022-12-29T03:20:15.349Z,4.87
2022-12-29T03:25:31.213Z,4.91
2022-12-29T03:30:35.825Z,4.92
2022-12-29T03:35:41.613Z,4.91
2022-12-29T03:40:49.392Z,4.89
2022-12-29T03:45:52.326Z,4.92
2022-12-29T03:50:55.188Z,4.94
2022-12-29T03:55:57.899Z,4.94
2022-12-29T04:01:00.848Z,4.91
2022-12-29T04:06:03.976Z,4.84
2022-12-29T04:11:06.906Z,4.79
2022-12-29T04:16:10.468Z,4.76
2022-12-29T04:21:13.562Z,4.78
2022-12-29T04:26:17.046Z,4.81
2022-12-29T04:31:19.892Z,4.82
2022-12-29T04:36:27.770Z,4.84
2022-12-29T04:41:32.697Z,4.86
2022-12-29T04:46:35.634Z,4.86
2022-12-29T04:51:38.506Z,4.87
2022-12-29T04:56:41.278Z,4.96
2022-12-29T05:01:44.088Z,5.16
2022-12-29T05:06:47.080Z,5.34
2022-12-29T05:11:50.048Z,5.53
2022-12-29T05:16:52.787Z,5.59
2022-12-29T05:21:55.596Z,5.59
2022-12-29T05:26:58.365Z,5.54
2022-12-29T05:32:01.150Z,5.52
2022-12-29T05:37:03.957Z,5.55
2022-12-29T05:42:06.694Z,5.53
2022-12-29T05:47:09.579Z,5.52
2022-12-29T05:52:12.525Z,5.53
2022-12-29T05:57:15.304Z,5.53
2022-12-29T06:02:18.137Z,5.56
2022-12-29T06:07:21.046Z,5.62
2022-12-29T06:12:23.773Z,5.68
2022-12-29T06:17:26.729Z,5.71
2022-12-29T06:22:29.450Z,5.71
2022-12-29T06:27:32.632Z,5.78
2022-12-29T06:32:35.669Z,5.82
2022-12-29T06:37:38.494Z,5.84
2022-12-29T06:42:41.308Z,5.80
2022-12-29T06:47:44.017Z,5.69
2022-12-29T06:52:46.790Z,5.57
2022-12-29T06:57:49.552Z,5.45
2022-12-29T07:02:52.586Z,5.40
2022-12-29T07:07:56.295Z,5.40
2022-12-29T07:12:59.329Z,5.47
2022-12-29T07:18:02.131Z,5.58
2022-12-29T07:23:04.894Z,5.65
2022-12-29T07:28:07.773Z,5.57
2022-12-29T07:33:10.535Z,5.46
2022-12-29T07:38:13.350Z,5.40
2022-12-29T07:43:16.159Z,5.38
2022-12-29T07:48:19.312Z,5.39
2022-12-29T07:53:22.401Z,5.41
2022-12-29T07:58:25.264Z,5.45
2022-12-29T08:03:28.123Z,5.47
2022-12-29T08:08:30.948Z,5.48
2022-12-29T08:13:33.823Z,5.50
2022-12-29T08:18:36.902Z,5.51
2022-12-29T08:23:39.641Z,5.58
2022-12-29T08:28:42.436Z,5.69
2022-12-29T08:33:45.205Z,5.76
2022-12-29T08:38:48.037Z,5.81
2022-12-29T08:43:51.052Z,5.89
2022-12-29T08:48:54.796Z,5.96
2022-12-29T08:53:57.939Z,5.97
2022-12-29T08:59:00.739Z,5.98
2022-12-29T09:04:14.936Z,6.00
2022-12-29T09:09:19.589Z,6.06
2022-12-29T09:14:22.621Z,6.16
2022-12-29T09:19:25.428Z,6.32
2022-12-29T09:24:28.209Z,6.55
2022-12-29T09:29:31.139Z,6.77
2022-12-29T09:34:34.074Z,6.87
2022-12-29T09:39:36.879Z,6.88
2022-12-29T09:45:08.023Z,6.86
2022-12-29T09:50:23.841Z,6.81
2022-12-29T09:55:36.847Z,6.81
2022-12-29T10:00:54.531Z,6.82
2022-12-29T10:06:23.384Z,6.86
2022-12-29T10:11:57.042Z,6.90
2022-12-29T10:17:28.912Z,6.91
2022-12-29T10:22:49.847Z,6.94
2022-12-29T10:27:56.159Z,7.09
2022-12-29T10:33:02.468Z,7.20
2022-12-29T10:38:25.077Z,7.21
2022-12-29T10:43:38.564Z,7.30
2022-12-29T10:48:41.348Z,7.52
2022-12-29T10:53:52.743Z,7.65
2022-12-29T10:58:58.005Z,7.71
2022-12-29T11:04:12.844Z,7.74
2022-12-29T11:09:36.637Z,7.73
2022-12-29T11:14:44.729Z,7.70
2022-12-29T11:19:47.499Z,7.67
2022-12-29T11:24:52.248Z,7.58
2022-12-29T11:29:55.536Z,7.58
2022-12-29T11:34:59.984Z,7.53
2022-12-29T11:40:05.553Z,7.53
2022-12-29T11:45:17.631Z,7.55
2022-12-29T11:50:24.993Z,7.56
2022-12-29T11:55:29.945Z,7.52
2022-12-29T12:00:38.157Z,7.53
2022-12-29T12:05:54.975Z,7.47
2022-12-29T12:11:15.664Z,7.40
2022-12-29T12:16:22.649Z,7.37
2022-12-29T12:21:25.411Z,7.37
2022-12-29T12:26:50.065Z,7.38
2022-12-29T12:32:05.567Z,7.39
2022-12-29T12:37:27.284Z,7.39
2022-12-29T12:42:49.088Z,7.38
2022-12-29T12:48:01.177Z,7.43
2022-12-29T12:53:51.219Z,7.50
2022-12-29T12:59:38.606Z,7.50
2022-12-29T13:05:26.163Z,7.48
2022-12-29T13:10:54.534Z,7.46
2022-12-29T13:16:35.084Z,7.38
2022-12-29T13:22:09.244Z,7.29
2022-12-29T13:27:36.931Z,7.20
2022-12-29T13:32:40.292Z,7.15
2022-12-29T13:37:55.470Z,7.13
2022-12-29T13:42:58.801Z,7.10
2022-12-29T13:48:23.039Z,7.07
2022-12-29T13:53:42.302Z,7.09
2022-12-29T13:58:47.837Z,7.12
2022-12-29T14:03:54.203Z,7.13
2022-12-29T14:09:03.491Z,7.14
2022-12-29T14:14:26.246Z,7.18
2022-12-29T14:19:32.586Z,7.21
2022-12-29T14:24:41.331Z,7.21
2022-12-29T14:29:49.154Z,7.26
2022-12-29T14:34:53.235Z,7.31
2022-12-29T14:40:18.924Z,7.34
2022-12-29T14:45:21.691Z,7.37
2022-12-29T14:50:41.854Z,7.38
2022-12-29T14:55:48.280Z,7.39
2022-12-29T15:00:51.874Z,7.43
2022-12-29T15:05:58.189Z,7.44
2022-12-29T15:11:21.807Z,7.46
2022-12-29T15:16:33.697Z,7.46
2022-12-29T15:21:37.649Z,7.44
2022-12-29T15:26:43.212Z,7.42
2022-12-29T15:31:49.975Z,7.43
2022-12-29T15:36:52.807Z,7.48
2022-12-29T15:42:01.032Z,7.49
2022-12-29T15:47:13.300Z,7.46
2022-12-29T15:52:22.177Z,7.39
2022-12-29T15:57:45.346Z,7.28
2022-12-29T16:02:48.344Z,7.16
2022-12-29T16:07:57.618Z,7.07
2022-12-29T16:13:21.733Z,6.99
2022-12-29T16:18:28.711Z,6.90
2022-12-29T16:23:31.940Z,6.87
2022-12-29T16:28:44.867Z,6.84
2022-12-29T16:33:53.543Z,6.85
2022-12-29T16:39:35.233Z,6.88
2022-12-29T16:44:38.028Z,6.93
2022-12-29T16:49:48.291Z,7.00
2022-12-29T16:54:55.057Z,7.07
2022-12-29T17:00:05.566Z,7.11
2022-12-29T17:05:14.358Z,7.15
2022-12-29T17:10:17.111Z,7.17
2022-12-29T17:15:25.951Z,7.17
2022-12-29T17:20:31.604Z,7.16
2022-12-29T17:25:37.626Z,7.12
2022-12-29T17:30:41.032Z,7.10
2022-12-29T17:35:44.241Z,7.11
2022-12-29T17:40:47.609Z,7.14
2022-12-29T17:45:56.616Z,7.15
2022-12-29T17:50:59.672Z,7.17
2022-12-29T17:56:02.449Z,7.18
2022-12-29T18:01:06.453Z,7.16
2022-12-29T18:06:12.562Z,7.18
2022-12-29T18:11:25.056Z,7.19
2022-12-29T18:16:28.370Z,7.21
2022-12-29T18:21:31.589Z,7.18
2022-12-29T18:26:35.876Z,7.15
2022-12-29T18:31:38.840Z,7.11
2022-12-29T18:36:41.880Z,7.05
2022-12-29T18:41:44.648Z,6.96
2022-12-29T18:46:47.896Z,6.90
2022-12-29T18:51:50.743Z,6.88
2022-12-29T18:56:54.150Z,6.88
2022-12-29T19:01:57.008Z,6.89
2022-12-29T19:07:01.225Z,6.89
2022-12-29T19:12:04.949Z,6.89
2022-12-29T19:17:12.540Z,6.84
2022-12-29T19:22:15.303Z,6.81
2022-12-29T19:27:18.728Z,6.79
2022-12-29T19:32:21.498Z,6.80
2022-12-29T19:37:24.264Z,6.77
2022-12-29T19:42:27.003Z,6.75
2022-12-29T19:47:32.130Z,6.76
2022-12-29T19:52:36.213Z,6.79
2022-12-29T19:57:39.299Z,6.82
2022-12-29T20:02:43.439Z,6.81
2022-12-29T20:07:46.593Z,6.80
2022-12-29T20:12:49.322Z,6.82
2022-12-29T20:23:16.097Z,6.88
2022-12-29T20:28:18.884Z,6.85
2022-12-29T20:33:21.978Z,6.78
2022-12-29T20:38:24.793Z,6.72
2022-12-29T20:43:27.883Z,6.65
2022-12-29T20:48:30.834Z,6.53
2022-12-29T20:53:36.137Z,6.39
2022-12-29T20:59:08.199Z,6.27
2022-12-29T21:04:01.972Z,6.18
2022-12-29T21:09:06.037Z,6.13
2022-12-29T21:14:09.677Z,6.14
2022-12-29T21:19:13.712Z,6.22
2022-12-29T21:24:16.832Z,6.28
2022-12-29T21:29:19.585Z,6.33
2022-12-29T21:34:22.413Z,6.40
2022-12-29T21:39:25.346Z,6.48
2022-12-29T21:44:47.039Z,6.52
2022-12-29T21:49:50.554Z,6.53
2022-12-29T21:55:02.234Z,6.57
2022-12-29T22:00:26.518Z,6.62
2022-12-29T22:05:48.233Z,6.62
2022-12-29T22:11:09.647Z,6.63
2022-12-29T22:16:12.669Z,6.66
2022-12-29T22:21:15.637Z,6.68
2022-12-29T22:26:18.593Z,6.68
2022-12-29T22:31:27.989Z,6.70
2022-12-29T22:36:32.501Z,6.71
2022-12-29T22:41:35.370Z,6.73
2022-12-29T22:46:38.169Z,6.76
2022-12-29T22:51:40.919Z,6.74
2022-12-29T22:56:44.653Z,6.69
2022-12-29T23:01:48.100Z,6.59
2022-12-29T23:06:50.980Z,6.51
2022-12-29T23:11:53.844Z,6.41
2022-12-29T23:16:57.159Z,6.33
2022-12-29T23:22:00.749Z,6.30
2022-12-29T23:27:03.673Z,6.32
2022-12-29T23:32:06.429Z,6.36
2022-12-29T23:37:09.185Z,6.38
2022-12-29T23:42:12.513Z,6.39
2022-12-29T23:47:15.272Z,6.44
2022-12-29T23:52:18.066Z,6.46
2022-12-29T23:57:20.927Z,6.45
